sensor_id;sensor_type;location;lat;lon;timestamp;P1;durP1;ratioP1;P2;durP2;ratioP2
8819;SDS011;4446;50.876;4.736;2023-05-07T00:01:39;4.75;;;3.83;;
8819;SDS011;4446;50.876;4.736;2023-05-07T00:04:06;5.07;;;4.22;;
8819;SDS011;4446;50.876;4.736;2023-05-07T00:06:33;5.70;;;4.38;;
8819;SDS011;4446;50.876;4.736;2023-05-07T00:09:00;5.53;;;4.25;;
8819;SDS011;4446;50.876;4.736;2023-05-07T00:11:28;5.90;;;4.50;;
8819;SDS011;4446;50.876;4.736;2023-05-07T00:13:55;5.28;;;4.63;;
8819;SDS011;4446;50.876;4.736;2023-05-07T00:16:23;4.72;;;4.20;;
8819;SDS011;4446;50.876;4.736;2023-05-07T00:18:51;6.07;;;4.15;;
8819;SDS011;4446;50.876;4.736;2023-05-07T00:21:18;4.53;;;4.00;;
8819;SDS011;4446;50.876;4.736;2023-05-07T00:23:46;8.65;;;4.93;;
8819;SDS011;4446;50.876;4.736;2023-05-07T00:26:13;5.60;;;4.25;;
8819;SDS011;4446;50.876;4.736;2023-05-07T00:28:40;5.82;;;4.18;;
8819;SDS011;4446;50.876;4.736;2023-05-07T00:31:07;5.00;;;4.20;;
8819;SDS011;4446;50.876;4.736;2023-05-07T00:33:36;5.03;;;4.32;;
8819;SDS011;4446;50.876;4.736;2023-05-07T00:36:04;5.30;;;4.45;;
8819;SDS011;4446;50.876;4.736;2023-05-07T00:38:31;6.35;;;4.97;;
8819;SDS011;4446;50.876;4.736;2023-05-07T00:40:59;6.50;;;4.75;;
8819;SDS011;4446;50.876;4.736;2023-05-07T00:43:27;5.00;;;4.35;;
8819;SDS011;4446;50.876;4.736;2023-05-07T00:45:54;8.00;;;4.60;;
8819;SDS011;4446;50.876;4.736;2023-05-07T00:48:21;5.95;;;4.53;;
8819;SDS011;4446;50.876;4.736;2023-05-07T00:50:50;5.20;;;4.18;;
8819;SDS011;4446;50.876;4.736;2023-05-07T00:53:18;5.00;;;4.50;;
8819;SDS011;4446;50.876;4.736;2023-05-07T00:55:45;7.15;;;4.90;;
8819;SDS011;4446;50.876;4.736;2023-05-07T00:58:12;4.95;;;4.35;;
8819;SDS011;4446;50.876;4.736;2023-05-07T01:00:40;5.22;;;4.65;;
8819;SDS011;4446;50.876;4.736;2023-05-07T01:03:07;6.15;;;4.32;;
8819;SDS011;4446;50.876;4.736;2023-05-07T01:05:34;5.72;;;4.88;;
8819;SDS011;4446;50.876;4.736;2023-05-07T01:08:02;6.07;;;4.38;;
8819;SDS011;4446;50.876;4.736;2023-05-07T01:10:31;6.03;;;4.60;;
8819;SDS011;4446;50.876;4.736;2023-05-07T01:12:58;5.88;;;4.50;;
8819;SDS011;4446;50.876;4.736;2023-05-07T01:15:26;5.05;;;4.22;;
8819;SDS011;4446;50.876;4.736;2023-05-07T01:17:53;4.82;;;4.10;;
8819;SDS011;4446;50.876;4.736;2023-05-07T01:20:22;5.97;;;4.03;;
8819;SDS011;4446;50.876;4.736;2023-05-07T01:22:50;6.43;;;4.43;;
8819;SDS011;4446;50.876;4.736;2023-05-07T01:25:18;8.52;;;4.95;;
8819;SDS011;4446;50.876;4.736;2023-05-07T01:27:45;5.78;;;4.70;;
8819;SDS011;4446;50.876;4.736;2023-05-07T01:30:12;5.93;;;4.75;;
8819;SDS011;4446;50.876;4.736;2023-05-07T01:32:40;5.47;;;4.70;;
8819;SDS011;4446;50.876;4.736;2023-05-07T01:35:10;5.50;;;4.80;;
8819;SDS011;4446;50.876;4.736;2023-05-07T01:37:39;6.22;;;4.53;;
8819;SDS011;4446;50.876;4.736;2023-05-07T01:40:09;6.07;;;4.43;;
8819;SDS011;4446;50.876;4.736;2023-05-07T01:42:37;5.90;;;4.80;;
8819;SDS011;4446;50.876;4.736;2023-05-07T01:45:04;5.95;;;4.88;;
8819;SDS011;4446;50.876;4.736;2023-05-07T01:47:32;5.82;;;4.78;;
8819;SDS011;4446;50.876;4.736;2023-05-07T01:49:59;5.55;;;4.63;;
8819;SDS011;4446;50.876;4.736;2023-05-07T01:52:27;6.85;;;4.97;;
8819;SDS011;4446;50.876;4.736;2023-05-07T01:54:55;5.53;;;4.85;;
8819;SDS011;4446;50.876;4.736;2023-05-07T01:57:23;5.13;;;4.47;;
8819;SDS011;4446;50.876;4.736;2023-05-07T01:59:50;5.78;;;4.68;;
8819;SDS011;4446;50.876;4.736;2023-05-07T02:02:17;7.30;;;5.40;;
8819;SDS011;4446;50.876;4.736;2023-05-07T02:04:44;7.20;;;5.40;;
8819;SDS011;4446;50.876;4.736;2023-05-07T02:07:11;6.15;;;5.05;;
8819;SDS011;4446;50.876;4.736;2023-05-07T02:09:38;7.57;;;5.65;;
8819;SDS011;4446;50.876;4.736;2023-05-07T02:12:05;6.20;;;5.00;;
8819;SDS011;4446;50.876;4.736;2023-05-07T02:14:33;6.72;;;5.03;;
8819;SDS011;4446;50.876;4.736;2023-05-07T02:17:00;7.07;;;4.72;;
8819;SDS011;4446;50.876;4.736;2023-05-07T02:19:27;4.95;;;4.45;;
8819;SDS011;4446;50.876;4.736;2023-05-07T02:21:54;5.75;;;4.38;;
8819;SDS011;4446;50.876;4.736;2023-05-07T02:24:21;6.93;;;5.07;;
8819;SDS011;4446;50.876;4.736;2023-05-07T02:26:48;9.55;;;5.10;;
8819;SDS011;4446;50.876;4.736;2023-05-07T02:29:15;6.90;;;4.75;;
8819;SDS011;4446;50.876;4.736;2023-05-07T02:31:44;5.68;;;4.68;;
8819;SDS011;4446;50.876;4.736;2023-05-07T02:34:11;5.00;;;4.22;;
8819;SDS011;4446;50.876;4.736;2023-05-07T02:36:37;4.90;;;4.45;;
8819;SDS011;4446;50.876;4.736;2023-05-07T02:39:05;6.30;;;4.93;;
8819;SDS011;4446;50.876;4.736;2023-05-07T02:41:32;6.38;;;5.22;;
8819;SDS011;4446;50.876;4.736;2023-05-07T02:43:59;6.10;;;4.85;;
8819;SDS011;4446;50.876;4.736;2023-05-07T02:46:26;6.47;;;4.95;;
8819;SDS011;4446;50.876;4.736;2023-05-07T02:48:54;5.40;;;4.88;;
8819;SDS011;4446;50.876;4.736;2023-05-07T02:51:22;7.28;;;5.45;;
8819;SDS011;4446;50.876;4.736;2023-05-07T02:53:49;7.82;;;6.60;;
8819;SDS011;4446;50.876;4.736;2023-05-07T02:56:16;8.00;;;6.18;;
8819;SDS011;4446;50.876;4.736;2023-05-07T02:58:43;6.57;;;5.88;;
8819;SDS011;4446;50.876;4.736;2023-05-07T03:01:10;7.38;;;5.80;;
8819;SDS011;4446;50.876;4.736;2023-05-07T03:03:39;7.20;;;5.13;;
8819;SDS011;4446;50.876;4.736;2023-05-07T03:06:07;7.85;;;5.78;;
8819;SDS011;4446;50.876;4.736;2023-05-07T03:08:34;6.35;;;5.15;;
8819;SDS011;4446;50.876;4.736;2023-05-07T03:11:02;7.45;;;5.82;;
8819;SDS011;4446;50.876;4.736;2023-05-07T03:13:29;8.55;;;5.70;;
8819;SDS011;4446;50.876;4.736;2023-05-07T03:15:56;7.72;;;6.18;;
8819;SDS011;4446;50.876;4.736;2023-05-07T03:18:22;8.70;;;6.13;;
8819;SDS011;4446;50.876;4.736;2023-05-07T03:20:50;9.07;;;5.75;;
8819;SDS011;4446;50.876;4.736;2023-05-07T03:23:19;8.40;;;7.15;;
8819;SDS011;4446;50.876;4.736;2023-05-07T03:25:46;8.70;;;7.07;;
8819;SDS011;4446;50.876;4.736;2023-05-07T03:28:13;8.57;;;6.93;;
8819;SDS011;4446;50.876;4.736;2023-05-07T03:30:39;8.40;;;6.85;;
8819;SDS011;4446;50.876;4.736;2023-05-07T03:33:06;8.73;;;6.43;;
8819;SDS011;4446;50.876;4.736;2023-05-07T03:35:33;6.65;;;5.68;;
8819;SDS011;4446;50.876;4.736;2023-05-07T03:38:00;7.18;;;5.78;;
8819;SDS011;4446;50.876;4.736;2023-05-07T03:40:29;7.45;;;6.68;;
8819;SDS011;4446;50.876;4.736;2023-05-07T03:42:56;7.38;;;5.70;;
8819;SDS011;4446;50.876;4.736;2023-05-07T03:45:23;6.78;;;5.13;;
8819;SDS011;4446;50.876;4.736;2023-05-07T03:47:50;7.97;;;5.60;;
8819;SDS011;4446;50.876;4.736;2023-05-07T03:50:17;7.97;;;5.95;;
8819;SDS011;4446;50.876;4.736;2023-05-07T03:52:44;9.63;;;6.10;;
8819;SDS011;4446;50.876;4.736;2023-05-07T03:55:11;8.70;;;6.30;;
8819;SDS011;4446;50.876;4.736;2023-05-07T03:57:39;7.95;;;6.65;;
8819;SDS011;4446;50.876;4.736;2023-05-07T04:00:06;9.27;;;6.68;;
8819;SDS011;4446;50.876;4.736;2023-05-07T04:02:34;9.00;;;7.55;;
8819;SDS011;4446;50.876;4.736;2023-05-07T04:05:01;10.25;;;8.10;;
8819;SDS011;4446;50.876;4.736;2023-05-07T04:07:28;9.23;;;7.20;;
8819;SDS011;4446;50.876;4.736;2023-05-07T04:09:55;9.30;;;7.18;;
8819;SDS011;4446;50.876;4.736;2023-05-07T04:12:22;8.82;;;7.40;;
8819;SDS011;4446;50.876;4.736;2023-05-07T04:14:50;8.05;;;6.93;;
8819;SDS011;4446;50.876;4.736;2023-05-07T04:17:17;7.38;;;5.97;;
8819;SDS011;4446;50.876;4.736;2023-05-07T04:19:44;9.07;;;6.40;;
8819;SDS011;4446;50.876;4.736;2023-05-07T04:22:12;7.35;;;5.90;;
8819;SDS011;4446;50.876;4.736;2023-05-07T04:24:38;7.45;;;6.22;;
8819;SDS011;4446;50.876;4.736;2023-05-07T04:27:05;8.40;;;6.93;;
8819;SDS011;4446;50.876;4.736;2023-05-07T04:29:32;7.78;;;6.45;;
8819;SDS011;4446;50.876;4.736;2023-05-07T04:32:01;10.65;;;6.88;;
8819;SDS011;4446;50.876;4.736;2023-05-07T04:34:28;7.65;;;5.93;;
8819;SDS011;4446;50.876;4.736;2023-05-07T04:36:57;9.45;;;6.85;;
8819;SDS011;4446;50.876;4.736;2023-05-07T04:39:25;7.28;;;5.97;;
8819;SDS011;4446;50.876;4.736;2023-05-07T04:41:53;9.00;;;6.80;;
8819;SDS011;4446;50.876;4.736;2023-05-07T04:44:20;9.60;;;6.50;;
8819;SDS011;4446;50.876;4.736;2023-05-07T04:46:47;9.48;;;7.47;;
8819;SDS011;4446;50.876;4.736;2023-05-07T04:49:16;7.38;;;6.57;;
8819;SDS011;4446;50.876;4.736;2023-05-07T04:51:43;8.55;;;6.63;;
8819;SDS011;4446;50.876;4.736;2023-05-07T04:54:10;9.45;;;7.78;;
8819;SDS011;4446;50.876;4.736;2023-05-07T04:56:37;10.63;;;8.18;;
8819;SDS011;4446;50.876;4.736;2023-05-07T04:59:04;8.60;;;6.70;;
8819;SDS011;4446;50.876;4.736;2023-05-07T05:01:31;10.73;;;7.10;;
8819;SDS011;4446;50.876;4.736;2023-05-07T05:03:58;7.00;;;6.30;;
8819;SDS011;4446;50.876;4.736;2023-05-07T05:06:27;9.70;;;8.07;;
8819;SDS011;4446;50.876;4.736;2023-05-07T05:08:54;9.20;;;7.60;;
8819;SDS011;4446;50.876;4.736;2023-05-07T05:11:21;12.95;;;9.43;;
8819;SDS011;4446;50.876;4.736;2023-05-07T05:13:48;10.40;;;8.40;;
8819;SDS011;4446;50.876;4.736;2023-05-07T05:16:15;13.00;;;10.07;;
8819;SDS011;4446;50.876;4.736;2023-05-07T05:18:42;12.15;;;9.55;;
8819;SDS011;4446;50.876;4.736;2023-05-07T05:21:09;11.68;;;8.70;;
8819;SDS011;4446;50.876;4.736;2023-05-07T05:23:38;10.80;;;8.63;;
8819;SDS011;4446;50.876;4.736;2023-05-07T05:26:05;9.65;;;7.75;;
8819;SDS011;4446;50.876;4.736;2023-05-07T05:28:32;10.68;;;8.73;;
8819;SDS011;4446;50.876;4.736;2023-05-07T05:30:59;11.52;;;8.90;;
8819;SDS011;4446;50.876;4.736;2023-05-07T05:33:26;12.55;;;9.40;;
8819;SDS011;4446;50.876;4.736;2023-05-07T05:35:53;10.85;;;8.30;;
8819;SDS011;4446;50.876;4.736;2023-05-07T05:38:20;10.10;;;8.18;;
8819;SDS011;4446;50.876;4.736;2023-05-07T05:40:48;9.45;;;7.57;;
8819;SDS011;4446;50.876;4.736;2023-05-07T05:43:15;8.57;;;6.63;;
8819;SDS011;4446;50.876;4.736;2023-05-07T05:45:42;12.30;;;8.00;;
8819;SDS011;4446;50.876;4.736;2023-05-07T05:48:09;11.23;;;8.35;;
8819;SDS011;4446;50.876;4.736;2023-05-07T05:50:36;11.38;;;8.35;;
8819;SDS011;4446;50.876;4.736;2023-05-07T05:53:03;9.18;;;7.32;;
8819;SDS011;4446;50.876;4.736;2023-05-07T05:55:30;12.23;;;8.65;;
8819;SDS011;4446;50.876;4.736;2023-05-07T05:57:59;12.43;;;9.43;;
8819;SDS011;4446;50.876;4.736;2023-05-07T06:00:27;10.63;;;8.93;;
8819;SDS011;4446;50.876;4.736;2023-05-07T06:02:54;10.95;;;8.70;;
8819;SDS011;4446;50.876;4.736;2023-05-07T06:05:22;9.95;;;7.72;;
8819;SDS011;4446;50.876;4.736;2023-05-07T06:07:48;8.98;;;7.53;;
8819;SDS011;4446;50.876;4.736;2023-05-07T06:10:16;12.30;;;8.00;;
8819;SDS011;4446;50.876;4.736;2023-05-07T06:12:43;10.70;;;8.15;;
8819;SDS011;4446;50.876;4.736;2023-05-07T06:15:11;9.73;;;7.53;;
8819;SDS011;4446;50.876;4.736;2023-05-07T06:17:38;9.52;;;7.65;;
8819;SDS011;4446;50.876;4.736;2023-05-07T06:20:06;9.20;;;6.40;;
8819;SDS011;4446;50.876;4.736;2023-05-07T06:22:33;9.18;;;6.53;;
8819;SDS011;4446;50.876;4.736;2023-05-07T06:25:00;8.20;;;6.18;;
8819;SDS011;4446;50.876;4.736;2023-05-07T06:27:28;10.02;;;6.80;;
8819;SDS011;4446;50.876;4.736;2023-05-07T06:29:54;11.57;;;7.82;;
8819;SDS011;4446;50.876;4.736;2023-05-07T06:32:23;7.40;;;6.50;;
8819;SDS011;4446;50.876;4.736;2023-05-07T06:34:50;8.10;;;6.10;;
8819;SDS011;4446;50.876;4.736;2023-05-07T06:37:17;9.77;;;7.20;;
8819;SDS011;4446;50.876;4.736;2023-05-07T06:39:44;7.53;;;6.72;;
8819;SDS011;4446;50.876;4.736;2023-05-07T06:42:11;7.13;;;6.28;;
8819;SDS011;4446;50.876;4.736;2023-05-07T06:44:37;8.95;;;7.05;;
8819;SDS011;4446;50.876;4.736;2023-05-07T06:47:04;10.45;;;6.63;;
8819;SDS011;4446;50.876;4.736;2023-05-07T06:49:33;7.75;;;5.68;;
8819;SDS011;4446;50.876;4.736;2023-05-07T06:52:00;7.93;;;5.60;;
8819;SDS011;4446;50.876;4.736;2023-05-07T06:54:27;6.95;;;5.50;;
8819;SDS011;4446;50.876;4.736;2023-05-07T06:56:55;5.45;;;4.82;;
8819;SDS011;4446;50.876;4.736;2023-05-07T06:59:22;6.60;;;5.10;;
8819;SDS011;4446;50.876;4.736;2023-05-07T07:01:50;5.75;;;4.10;;
8819;SDS011;4446;50.876;4.736;2023-05-07T07:04:17;5.00;;;4.40;;
8819;SDS011;4446;50.876;4.736;2023-05-07T07:06:49;5.15;;;3.70;;
8819;SDS011;4446;50.876;4.736;2023-05-07T07:09:16;5.70;;;3.88;;
8819;SDS011;4446;50.876;4.736;2023-05-07T07:11:43;6.82;;;3.83;;
8819;SDS011;4446;50.876;4.736;2023-05-07T07:14:10;5.50;;;3.60;;
8819;SDS011;4446;50.876;4.736;2023-05-07T07:16:38;7.57;;;3.95;;
8819;SDS011;4446;50.876;4.736;2023-05-07T07:19:05;4.68;;;3.28;;
8819;SDS011;4446;50.876;4.736;2023-05-07T07:21:33;5.70;;;3.53;;
8819;SDS011;4446;50.876;4.736;2023-05-07T07:24:01;4.25;;;3.40;;
8819;SDS011;4446;50.876;4.736;2023-05-07T07:26:28;4.03;;;3.35;;
8819;SDS011;4446;50.876;4.736;2023-05-07T07:28:56;5.57;;;3.08;;
8819;SDS011;4446;50.876;4.736;2023-05-07T07:31:23;4.45;;;3.42;;
8819;SDS011;4446;50.876;4.736;2023-05-07T07:33:50;6.20;;;3.60;;
8819;SDS011;4446;50.876;4.736;2023-05-07T07:36:17;5.85;;;3.65;;
8819;SDS011;4446;50.876;4.736;2023-05-07T07:38:44;5.13;;;3.25;;
8819;SDS011;4446;50.876;4.736;2023-05-07T07:41:12;4.38;;;3.50;;
8819;SDS011;4446;50.876;4.736;2023-05-07T07:43:39;5.45;;;3.90;;
8819;SDS011;4446;50.876;4.736;2023-05-07T07:46:06;5.32;;;3.40;;
8819;SDS011;4446;50.876;4.736;2023-05-07T07:48:33;4.43;;;2.83;;
8819;SDS011;4446;50.876;4.736;2023-05-07T07:51:00;5.70;;;2.90;;
8819;SDS011;4446;50.876;4.736;2023-05-07T07:53:27;5.40;;;2.95;;
8819;SDS011;4446;50.876;4.736;2023-05-07T07:55:55;3.92;;;2.88;;
8819;SDS011;4446;50.876;4.736;2023-05-07T07:58:24;4.68;;;2.50;;
8819;SDS011;4446;50.876;4.736;2023-05-07T08:00:51;3.83;;;2.50;;
8819;SDS011;4446;50.876;4.736;2023-05-07T08:03:20;4.32;;;2.60;;
8819;SDS011;4446;50.876;4.736;2023-05-07T08:05:48;5.90;;;2.60;;
8819;SDS011;4446;50.876;4.736;2023-05-07T08:08:16;3.97;;;2.70;;
8819;SDS011;4446;50.876;4.736;2023-05-07T08:10:43;3.78;;;2.60;;
8819;SDS011;4446;50.876;4.736;2023-05-07T08:13:10;4.82;;;2.90;;
8819;SDS011;4446;50.876;4.736;2023-05-07T08:15:38;6.35;;;3.13;;
8819;SDS011;4446;50.876;4.736;2023-05-07T08:18:05;5.18;;;3.22;;
8819;SDS011;4446;50.876;4.736;2023-05-07T08:20:32;8.35;;;3.30;;
8819;SDS011;4446;50.876;4.736;2023-05-07T08:23:04;5.50;;;3.33;;
8819;SDS011;4446;50.876;4.736;2023-05-07T08:25:32;7.50;;;3.50;;
8819;SDS011;4446;50.876;4.736;2023-05-07T08:27:59;4.75;;;3.00;;
8819;SDS011;4446;50.876;4.736;2023-05-07T08:30:26;6.82;;;3.30;;
8819;SDS011;4446;50.876;4.736;2023-05-07T08:32:55;5.65;;;3.53;;
8819;SDS011;4446;50.876;4.736;2023-05-07T08:35:22;6.43;;;3.20;;
8819;SDS011;4446;50.876;4.736;2023-05-07T08:37:50;5.43;;;3.17;;
8819;SDS011;4446;50.876;4.736;2023-05-07T08:40:17;4.80;;;3.60;;
8819;SDS011;4446;50.876;4.736;2023-05-07T08:42:44;4.90;;;3.05;;
8819;SDS011;4446;50.876;4.736;2023-05-07T08:45:15;4.35;;;3.08;;
8819;SDS011;4446;50.876;4.736;2023-05-07T08:47:46;5.07;;;3.70;;
8819;SDS011;4446;50.876;4.736;2023-05-07T08:50:18;4.97;;;3.22;;
8819;SDS011;4446;50.876;4.736;2023-05-07T08:52:46;8.95;;;3.70;;
8819;SDS011;4446;50.876;4.736;2023-05-07T08:55:14;4.65;;;2.92;;
8819;SDS011;4446;50.876;4.736;2023-05-07T08:57:41;5.75;;;3.33;;
8819;SDS011;4446;50.876;4.736;2023-05-07T09:00:08;6.55;;;3.17;;
8819;SDS011;4446;50.876;4.736;2023-05-07T09:02:36;5.57;;;3.42;;
8819;SDS011;4446;50.876;4.736;2023-05-07T09:05:04;4.10;;;2.90;;
8819;SDS011;4446;50.876;4.736;2023-05-07T09:07:33;5.40;;;3.03;;
8819;SDS011;4446;50.876;4.736;2023-05-07T09:10:00;4.82;;;2.58;;
8819;SDS011;4446;50.876;4.736;2023-05-07T09:12:29;3.25;;;2.45;;
8819;SDS011;4446;50.876;4.736;2023-05-07T09:14:56;7.22;;;2.80;;
8819;SDS011;4446;50.876;4.736;2023-05-07T09:17:23;6.47;;;2.75;;
8819;SDS011;4446;50.876;4.736;2023-05-07T09:19:50;6.00;;;2.42;;
8819;SDS011;4446;50.876;4.736;2023-05-07T09:22:18;2.88;;;2.45;;
8819;SDS011;4446;50.876;4.736;2023-05-07T09:24:48;4.90;;;2.42;;
8819;SDS011;4446;50.876;4.736;2023-05-07T09:27:16;6.40;;;2.70;;
8819;SDS011;4446;50.876;4.736;2023-05-07T09:29:44;5.25;;;2.90;;
8819;SDS011;4446;50.876;4.736;2023-05-07T09:32:11;3.90;;;2.55;;
8819;SDS011;4446;50.876;4.736;2023-05-07T09:34:38;5.60;;;2.53;;
8819;SDS011;4446;50.876;4.736;2023-05-07T09:37:06;4.53;;;2.40;;
8819;SDS011;4446;50.876;4.736;2023-05-07T09:39:40;4.90;;;2.60;;
8819;SDS011;4446;50.876;4.736;2023-05-07T09:42:09;7.30;;;2.97;;
8819;SDS011;4446;50.876;4.736;2023-05-07T09:44:36;3.20;;;2.85;;
8819;SDS011;4446;50.876;4.736;2023-05-07T09:47:04;4.00;;;2.65;;
8819;SDS011;4446;50.876;4.736;2023-05-07T09:49:33;4.80;;;3.05;;
8819;SDS011;4446;50.876;4.736;2023-05-07T09:52:02;5.78;;;3.13;;
8819;SDS011;4446;50.876;4.736;2023-05-07T09:54:31;4.80;;;3.53;;
8819;SDS011;4446;50.876;4.736;2023-05-07T09:56:59;4.22;;;3.40;;
8819;SDS011;4446;50.876;4.736;2023-05-07T09:59:30;4.38;;;3.28;;
8819;SDS011;4446;50.876;4.736;2023-05-07T10:01:59;5.88;;;3.30;;
8819;SDS011;4446;50.876;4.736;2023-05-07T10:04:30;3.83;;;2.83;;
8819;SDS011;4446;50.876;4.736;2023-05-07T10:06:58;3.78;;;2.72;;
8819;SDS011;4446;50.876;4.736;2023-05-07T10:09:26;5.57;;;3.20;;
8819;SDS011;4446;50.876;4.736;2023-05-07T10:11:53;4.75;;;3.05;;
8819;SDS011;4446;50.876;4.736;2023-05-07T10:14:21;6.90;;;3.50;;
8819;SDS011;4446;50.876;4.736;2023-05-07T10:16:49;5.63;;;3.40;;
8819;SDS011;4446;50.876;4.736;2023-05-07T10:19:17;4.75;;;3.35;;
8819;SDS011;4446;50.876;4.736;2023-05-07T10:21:48;4.22;;;3.30;;
8819;SDS011;4446;50.876;4.736;2023-05-07T10:24:21;3.70;;;3.40;;
8819;SDS011;4446;50.876;4.736;2023-05-07T10:26:52;5.00;;;3.80;;
8819;SDS011;4446;50.876;4.736;2023-05-07T10:29:25;4.47;;;3.38;;
8819;SDS011;4446;50.876;4.736;2023-05-07T10:32:04;5.03;;;3.33;;
8819;SDS011;4446;50.876;4.736;2023-05-07T10:34:42;5.38;;;3.03;;
8819;SDS011;4446;50.876;4.736;2023-05-07T10:37:11;5.57;;;3.08;;
8819;SDS011;4446;50.876;4.736;2023-05-07T10:39:39;6.65;;;3.22;;
8819;SDS011;4446;50.876;4.736;2023-05-07T10:42:08;5.40;;;2.80;;
8819;SDS011;4446;50.876;4.736;2023-05-07T10:44:35;6.70;;;3.38;;
8819;SDS011;4446;50.876;4.736;2023-05-07T10:47:08;5.82;;;2.78;;
8819;SDS011;4446;50.876;4.736;2023-05-07T10:49:36;3.08;;;2.78;;
8819;SDS011;4446;50.876;4.736;2023-05-07T10:52:13;4.55;;;2.63;;
8819;SDS011;4446;50.876;4.736;2023-05-07T10:54:41;3.90;;;2.67;;
8819;SDS011;4446;50.876;4.736;2023-05-07T11:03:11;6.25;;;3.90;;
8819;SDS011;4446;50.876;4.736;2023-05-07T11:05:39;4.05;;;3.03;;
8819;SDS011;4446;50.876;4.736;2023-05-07T11:08:07;4.47;;;2.95;;
8819;SDS011;4446;50.876;4.736;2023-05-07T11:10:48;3.70;;;3.28;;
8819;SDS011;4446;50.876;4.736;2023-05-07T11:13:17;3.70;;;3.05;;
8819;SDS011;4446;50.876;4.736;2023-05-07T11:15:45;3.60;;;2.83;;
8819;SDS011;4446;50.876;4.736;2023-05-07T11:18:15;5.07;;;2.78;;
8819;SDS011;4446;50.876;4.736;2023-05-07T11:20:44;3.92;;;3.25;;
8819;SDS011;4446;50.876;4.736;2023-05-07T11:26:13;4.60;;;2.50;;
8819;SDS011;4446;50.876;4.736;2023-05-07T11:28:41;4.47;;;2.90;;
8819;SDS011;4446;50.876;4.736;2023-05-07T11:31:08;3.20;;;2.80;;
8819;SDS011;4446;50.876;4.736;2023-05-07T11:33:38;4.60;;;2.90;;
8819;SDS011;4446;50.876;4.736;2023-05-07T11:36:05;5.15;;;2.80;;
8819;SDS011;4446;50.876;4.736;2023-05-07T11:38:35;4.30;;;2.70;;
8819;SDS011;4446;50.876;4.736;2023-05-07T11:41:02;5.50;;;2.78;;
8819;SDS011;4446;50.876;4.736;2023-05-07T11:43:30;3.95;;;2.20;;
8819;SDS011;4446;50.876;4.736;2023-05-07T11:46:04;4.95;;;2.50;;
8819;SDS011;4446;50.876;4.736;2023-05-07T11:48:33;5.60;;;2.10;;
8819;SDS011;4446;50.876;4.736;2023-05-07T11:51:02;5.53;;;2.20;;
8819;SDS011;4446;50.876;4.736;2023-05-07T11:53:36;2.50;;;2.10;;
8819;SDS011;4446;50.876;4.736;2023-05-07T11:56:08;2.75;;;1.83;;
8819;SDS011;4446;50.876;4.736;2023-05-07T11:58:39;5.95;;;2.40;;
8819;SDS011;4446;50.876;4.736;2023-05-07T12:01:08;2.65;;;1.92;;
8819;SDS011;4446;50.876;4.736;2023-05-07T12:03:36;3.80;;;2.50;;
8819;SDS011;4446;50.876;4.736;2023-05-07T12:06:09;2.63;;;2.10;;
8819;SDS011;4446;50.876;4.736;2023-05-07T12:08:37;3.50;;;2.05;;
8819;SDS011;4446;50.876;4.736;2023-05-07T12:11:06;3.42;;;1.98;;
8819;SDS011;4446;50.876;4.736;2023-05-07T12:13:34;2.97;;;2.00;;
8819;SDS011;4446;50.876;4.736;2023-05-07T12:16:02;5.82;;;2.10;;
8819;SDS011;4446;50.876;4.736;2023-05-07T12:18:31;3.65;;;2.45;;
8819;SDS011;4446;50.876;4.736;2023-05-07T12:21:04;2.55;;;2.08;;
8819;SDS011;4446;50.876;4.736;2023-05-07T12:23:34;5.13;;;1.90;;
8819;SDS011;4446;50.876;4.736;2023-05-07T12:26:02;2.92;;;2.03;;
8819;SDS011;4446;50.876;4.736;2023-05-07T12:28:30;3.05;;;1.83;;
8819;SDS011;4446;50.876;4.736;2023-05-07T12:31:02;5.57;;;1.80;;
8819;SDS011;4446;50.876;4.736;2023-05-07T12:33:29;2.42;;;1.67;;
8819;SDS011;4446;50.876;4.736;2023-05-07T12:35:57;3.17;;;1.60;;
8819;SDS011;4446;50.876;4.736;2023-05-07T12:38:32;2.00;;;1.50;;
8819;SDS011;4446;50.876;4.736;2023-05-07T12:41:03;1.73;;;1.40;;
8819;SDS011;4446;50.876;4.736;2023-05-07T12:43:32;3.15;;;1.45;;
8819;SDS011;4446;50.876;4.736;2023-05-07T12:45:59;2.85;;;1.45;;
8819;SDS011;4446;50.876;4.736;2023-05-07T12:48:29;1.88;;;1.50;;
8819;SDS011;4446;50.876;4.736;2023-05-07T12:51:00;1.85;;;1.60;;
8819;SDS011;4446;50.876;4.736;2023-05-07T12:53:28;1.73;;;1.50;;
8819;SDS011;4446;50.876;4.736;2023-05-07T12:55:58;4.13;;;2.50;;
8819;SDS011;4446;50.876;4.736;2023-05-07T12:58:26;1.80;;;1.50;;
8819;SDS011;4446;50.876;4.736;2023-05-07T13:00:55;1.90;;;1.67;;
8819;SDS011;4446;50.876;4.736;2023-05-07T13:03:25;1.85;;;1.50;;
8819;SDS011;4446;50.876;4.736;2023-05-07T13:05:54;2.88;;;1.95;;
8819;SDS011;4446;50.876;4.736;2023-05-07T13:08:25;3.40;;;1.67;;
8819;SDS011;4446;50.876;4.736;2023-05-07T13:10:58;2.35;;;1.50;;
8819;SDS011;4446;50.876;4.736;2023-05-07T13:13:29;2.83;;;1.70;;
8819;SDS011;4446;50.876;4.736;2023-05-07T13:15:56;1.90;;;1.70;;
8819;SDS011;4446;50.876;4.736;2023-05-07T13:18:24;3.60;;;1.60;;
8819;SDS011;4446;50.876;4.736;2023-05-07T13:20:52;2.63;;;1.60;;
8819;SDS011;4446;50.876;4.736;2023-05-07T13:23:19;2.47;;;1.77;;
8819;SDS011;4446;50.876;4.736;2023-05-07T13:25:46;1.95;;;1.60;;
8819;SDS011;4446;50.876;4.736;2023-05-07T13:28:15;2.72;;;1.80;;
8819;SDS011;4446;50.876;4.736;2023-05-07T13:30:42;1.77;;;1.67;;
8819;SDS011;4446;50.876;4.736;2023-05-07T13:33:09;2.38;;;1.70;;
8819;SDS011;4446;50.876;4.736;2023-05-07T13:35:36;3.30;;;2.05;;
8819;SDS011;4446;50.876;4.736;2023-05-07T13:38:03;2.90;;;1.90;;
8819;SDS011;4446;50.876;4.736;2023-05-07T13:40:30;2.00;;;1.77;;
8819;SDS011;4446;50.876;4.736;2023-05-07T13:42:57;2.75;;;1.90;;
8819;SDS011;4446;50.876;4.736;2023-05-07T13:45:28;2.25;;;1.85;;
8819;SDS011;4446;50.876;4.736;2023-05-07T13:47:55;2.08;;;1.80;;
8819;SDS011;4446;50.876;4.736;2023-05-07T13:50:23;2.33;;;2.00;;
8819;SDS011;4446;50.876;4.736;2023-05-07T13:52:51;2.72;;;2.20;;
8819;SDS011;4446;50.876;4.736;2023-05-07T13:55:19;2.85;;;1.88;;
8819;SDS011;4446;50.876;4.736;2023-05-07T13:57:47;2.88;;;1.83;;
8819;SDS011;4446;50.876;4.736;2023-05-07T14:00:21;2.42;;;1.77;;
8819;SDS011;4446;50.876;4.736;2023-05-07T14:02:49;1.80;;;1.70;;
8819;SDS011;4446;50.876;4.736;2023-05-07T14:05:16;2.25;;;1.75;;
8819;SDS011;4446;50.876;4.736;2023-05-07T14:07:43;3.70;;;2.10;;
8819;SDS011;4446;50.876;4.736;2023-05-07T14:10:10;3.22;;;1.80;;
8819;SDS011;4446;50.876;4.736;2023-05-07T14:12:38;2.28;;;2.08;;
8819;SDS011;4446;50.876;4.736;2023-05-07T14:15:05;2.35;;;1.90;;
8819;SDS011;4446;50.876;4.736;2023-05-07T14:17:33;3.08;;;2.20;;
8819;SDS011;4446;50.876;4.736;2023-05-07T14:20:02;4.00;;;2.13;;
8819;SDS011;4446;50.876;4.736;2023-05-07T14:22:29;3.75;;;2.40;;
8819;SDS011;4446;50.876;4.736;2023-05-07T14:24:56;4.28;;;2.80;;
8819;SDS011;4446;50.876;4.736;2023-05-07T14:27:23;4.88;;;2.55;;
8819;SDS011;4446;50.876;4.736;2023-05-07T14:29:50;2.42;;;2.10;;
8819;SDS011;4446;50.876;4.736;2023-05-07T14:32:17;4.40;;;2.15;;
8819;SDS011;4446;50.876;4.736;2023-05-07T14:34:45;2.83;;;2.13;;
8819;SDS011;4446;50.876;4.736;2023-05-07T14:37:13;2.50;;;2.08;;
8819;SDS011;4446;50.876;4.736;2023-05-07T14:39:40;2.17;;;1.92;;
8819;SDS011;4446;50.876;4.736;2023-05-07T14:42:07;2.88;;;1.80;;
8819;SDS011;4446;50.876;4.736;2023-05-07T14:44:34;3.00;;;2.22;;
8819;SDS011;4446;50.876;4.736;2023-05-07T14:47:01;2.90;;;2.08;;
8819;SDS011;4446;50.876;4.736;2023-05-07T14:49:28;2.13;;;1.92;;
8819;SDS011;4446;50.876;4.736;2023-05-07T14:51:57;2.83;;;2.10;;
8819;SDS011;4446;50.876;4.736;2023-05-07T14:54:28;3.42;;;2.10;;
8819;SDS011;4446;50.876;4.736;2023-05-07T14:56:55;2.53;;;2.33;;
8819;SDS011;4446;50.876;4.736;2023-05-07T14:59:22;2.83;;;1.88;;
8819;SDS011;4446;50.876;4.736;2023-05-07T15:01:50;3.15;;;2.13;;
8819;SDS011;4446;50.876;4.736;2023-05-07T15:04:17;2.28;;;1.80;;
8819;SDS011;4446;50.876;4.736;2023-05-07T15:06:45;3.70;;;2.22;;
8819;SDS011;4446;50.876;4.736;2023-05-07T15:09:12;2.53;;;2.00;;
8819;SDS011;4446;50.876;4.736;2023-05-07T15:11:41;2.78;;;2.05;;
8819;SDS011;4446;50.876;4.736;2023-05-07T15:14:08;3.70;;;2.58;;
8819;SDS011;4446;50.876;4.736;2023-05-07T15:16:35;2.33;;;2.08;;
8819;SDS011;4446;50.876;4.736;2023-05-07T15:19:02;2.85;;;2.45;;
8819;SDS011;4446;50.876;4.736;2023-05-07T15:21:29;2.88;;;2.30;;
8819;SDS011;4446;50.876;4.736;2023-05-07T15:24:01;3.80;;;2.60;;
8819;SDS011;4446;50.876;4.736;2023-05-07T15:26:28;3.05;;;1.95;;
8819;SDS011;4446;50.876;4.736;2023-05-07T15:28:59;2.15;;;1.95;;